Time;durP1;ratioP1;P1;durP2;ratioP2;P2;SDS_P1;SDS_P2;PMS_P1;PMS_P2;Temp;Humidity;BMP_temperature;BMP_pressure;BME280_temperature;BME280_humidity;BME280_pressure;Samples;Min_cycle;Max_cycle;Signal;HPM_P1;HPM_P2
2021/07/28 00:02:06;;;;;;;9.23;4.80;;;;;;;19.64;92.12;97905.72;5051266;28;20137;-78
2021/07/28 00:04:33;;;;;;;14.30;4.43;;;;;;;19.52;93.15;97899.44;5053125;28;20087;-78
2021/07/28 00:06:58;;;;;;;11.43;4.00;;;;;;;19.48;92.94;97895.78;5051407;28;20032;-77
2021/07/28 00:09:24;;;;;;;8.13;4.22;;;;;;;19.59;92.68;97880.19;5052750;28;20025;-79
2021/07/28 00:11:49;;;;;;;8.65;4.28;;;;;;;19.79;92.08;97901.38;5052533;28;20137;-78
2021/07/28 00:14:15;;;;;;;7.07;3.88;;;;;;;19.63;92.66;97898.56;5050953;28;20031;-79
2021/07/28 00:16:40;;;;;;;6.43;3.92;;;;;;;19.49;94.34;97897.38;5051516;28;20029;-81
2021/07/28 00:24:15;;;;;;;9.38;4.05;;;;;;;19.58;93.35;97892.44;5052344;28;20039;-78
2021/07/28 00:26:41;;;;;;;10.70;3.92;;;;;;;19.49;94.27;97892.63;5051401;28;20029;-78
2021/07/28 00:29:06;;;;;;;7.57;3.85;;;;;;;19.42;94.95;97897.19;5052243;28;20363;-78
2021/07/28 00:31:32;;;;;;;3.75;3.30;;;;;;;19.29;96.06;97887.28;5051899;28;20505;-78
2021/07/28 00:33:57;;;;;;;7.50;3.83;;;;;;;19.32;96.00;97887.38;5051978;28;20501;-78
2021/07/28 00:36:22;;;;;;;9.80;4.75;;;;;;;19.43;95.41;97887.69;5052122;28;20053;-78
2021/07/28 00:38:48;;;;;;;10.23;3.67;;;;;;;19.31;95.93;97879.41;5050896;28;20389;-79
2021/07/28 00:41:14;;;;;;;9.02;4.47;;;;;;;19.25;96.32;97893.53;5052173;28;20029;-79
2021/07/28 00:43:40;;;;;;;5.35;3.78;;;;;;;19.32;96.58;97892.13;5051893;28;20036;-78
2021/07/28 00:46:05;;;;;;;6.55;3.72;;;;;;;19.32;96.46;97881.03;5050247;28;20033;-79
2021/07/28 00:48:31;;;;;;;7.50;4.00;;;;;;;19.26;96.92;97889.56;5050826;28;20017;-78
2021/07/28 00:50:57;;;;;;;6.00;3.55;;;;;;;19.24;97.80;97891.09;5052222;28;20052;-79
2021/07/28 00:53:23;;;;;;;7.25;3.60;;;;;;;19.34;97.55;97884.22;5050604;28;20044;-77
2021/07/28 00:55:49;;;;;;;4.53;3.40;;;;;;;19.26;97.00;97878.47;5050313;28;20009;-79
2021/07/28 00:58:16;;;;;;;8.77;4.03;;;;;;;19.07;98.56;97877.53;5051737;28;20056;-78
2021/07/28 01:00:42;;;;;;;11.52;4.50;;;;;;;19.00;99.25;97869.00;5051512;28;20017;-78
2021/07/28 01:03:08;;;;;;;9.25;3.88;;;;;;;19.17;97.38;97879.81;5050175;28;20025;-78
2021/07/28 01:05:33;;;;;;;8.73;4.22;;;;;;;18.95;97.97;97870.06;5051850;28;20029;-78
2021/07/28 01:07:59;;;;;;;5.80;3.45;;;;;;;18.96;96.80;97870.88;5051536;28;20599;-78
2021/07/28 01:10:24;;;;;;;6.03;3.50;;;;;;;18.80;96.89;97859.72;5050367;28;20025;-78
2021/07/28 01:12:54;;;;;;;4.45;3.40;;;;;;;18.92;96.28;97861.66;5050217;28;20036;-77
2021/07/28 01:15:32;;;;;;;9.02;3.40;;;;;;;18.82;96.77;97864.94;5051472;28;20033;-79
2021/07/28 01:17:58;;;;;;;3.97;3.35;;;;;;;18.81;96.87;97866.88;5051582;28;20040;-77
2021/07/28 01:20:27;;;;;;;5.68;3.30;;;;;;;18.73;97.19;97863.09;5051427;28;20048;-79
2021/07/28 01:22:56;;;;;;;6.53;3.20;;;;;;;18.72;97.60;97866.22;5049838;28;20056;-78
2021/07/28 01:25:22;;;;;;;7.07;3.53;;;;;;;18.68;97.40;97862.53;5051084;28;20025;-78
2021/07/28 01:27:48;;;;;;;7.85;3.47;;;;;;;18.63;97.85;97868.31;5050986;28;20029;-78
2021/07/28 01:30:17;;;;;;;6.53;3.67;;;;;;;18.51;98.52;97857.28;5050848;28;20057;-78
2021/07/28 01:32:43;;;;;;;5.10;3.20;;;;;;;18.38;99.42;97859.22;5050900;28;20031;-78
2021/07/28 01:35:14;;;;;;;6.80;3.17;;;;;;;18.38;100.00;97869.50;5050995;28;20016;-79
2021/07/28 01:37:42;;;;;;;5.85;3.88;;;;;;;18.59;99.71;97864.63;5051117;28;20029;-78
2021/07/28 01:40:08;;;;;;;11.57;4.55;;;;;;;18.52;99.45;97848.59;5051001;28;20108;-77
2021/07/28 01:42:44;;;;;;;5.65;3.55;;;;;;;18.66;99.07;97867.63;5051215;28;20025;-77
2021/07/28 01:45:14;;;;;;;7.05;3.63;;;;;;;18.79;97.82;97873.94;5051073;28;20037;-77
2021/07/28 01:47:41;;;;;;;6.70;3.55;;;;;;;18.56;98.96;97882.75;5049630;28;20037;-79
2021/07/28 01:50:11;;;;;;;7.97;4.10;;;;;;;18.36;99.98;97877.31;5049483;28;20614;-78
2021/07/28 01:52:38;;;;;;;10.18;3.90;;;;;;;18.44;100.00;97874.44;5048874;28;20033;-78
2021/07/28 01:55:04;;;;;;;8.57;3.97;;;;;;;18.18;100.00;97883.13;5051183;28;20060;-81
2021/07/28 01:57:30;;;;;;;4.93;4.13;;;;;;;18.29;100.00;97882.66;5050774;28;20017;-81
2021/07/28 02:00:00;;;;;;;11.13;3.95;;;;;;;18.38;100.00;97888.88;5050453;28;20036;-80
2021/07/28 02:02:31;;;;;;;8.18;4.40;;;;;;;18.47;100.00;97881.25;5050868;28;20036;-80
2021/07/28 02:05:01;;;;;;;20.45;4.93;;;;;;;18.24;100.00;97863.50;5050555;28;20110;-81
2021/07/28 02:07:26;;;;;;;6.22;4.35;;;;;;;18.27;100.00;97860.84;5050760;28;20033;-81
2021/07/28 02:09:52;;;;;;;6.50;4.10;;;;;;;18.54;100.00;97862.13;5050450;28;20039;-82
2021/07/28 02:12:18;;;;;;;5.57;4.97;;;;;;;18.49;100.00;97854.84;5050784;28;20035;-81
2021/07/28 02:14:43;;;;;;;11.43;4.35;;;;;;;18.55;100.00;97858.16;5049179;28;20423;-79
2021/07/28 02:17:08;;;;;;;10.05;3.92;;;;;;;18.33;100.00;97850.31;5050683;28;20029;-80
2021/07/28 02:19:34;;;;;;;8.18;4.35;;;;;;;18.25;100.00;97859.56;5049201;28;20054;-80
2021/07/28 02:21:59;;;;;;;11.82;4.63;;;;;;;18.14;100.00;97862.81;5050562;28;20025;-79
2021/07/28 02:24:25;;;;;;;7.47;4.25;;;;;;;18.23;100.00;97861.91;5048881;28;20040;-80
2021/07/28 02:26:50;;;;;;;6.30;3.60;;;;;;;18.28;100.00;97856.91;5049141;28;20469;-79
2021/07/28 02:29:16;;;;;;;6.70;3.97;;;;;;;18.19;100.00;97854.28;5050694;28;20060;-79
2021/07/28 02:31:41;;;;;;;5.63;4.13;;;;;;;18.14;100.00;97848.97;5050392;28;20131;-81
2021/07/28 02:34:06;;;;;;;9.02;4.35;;;;;;;18.13;100.00;97841.00;5049194;28;20029;-82
2021/07/28 02:36:32;;;;;;;8.23;4.97;;;;;;;18.12;100.00;97844.94;5050566;28;20035;-81
2021/07/28 02:38:57;;;;;;;6.68;3.95;;;;;;;18.13;100.00;97847.38;5049215;28;20029;-80
2021/07/28 02:41:22;;;;;;;6.43;3.72;;;;;;;18.03;100.00;97845.06;5050381;28;20078;-80
2021/07/28 02:43:48;;;;;;;4.65;4.00;;;;;;;18.02;100.00;97846.19;5050285;28;20477;-81
2021/07/28 02:46:13;;;;;;;5.47;4.00;;;;;;;18.12;100.00;97851.28;5050508;28;20063;-82
2021/07/28 02:48:39;;;;;;;11.20;4.95;;;;;;;18.21;100.00;97853.91;5050289;28;20009;-82
2021/07/28 02:51:04;;;;;;;6.13;4.45;;;;;;;18.07;100.00;97854.25;5051354;28;20075;-81
2021/07/28 02:53:29;;;;;;;7.05;4.57;;;;;;;18.25;100.00;97851.28;5053272;28;20017;-81
2021/07/28 02:55:55;;;;;;;7.05;3.80;;;;;;;18.36;100.00;97855.97;5054285;28;20116;-80
2021/07/28 02:58:20;;;;;;;7.40;4.78;;;;;;;18.30;100.00;97856.56;5053124;28;20401;-82
2021/07/28 03:00:47;;;;;;;5.10;3.78;;;;;;;18.06;100.00;97851.84;5054149;28;20020;-80
2021/07/28 03:03:12;;;;;;;6.03;4.28;;;;;;;18.17;100.00;97845.50;5052942;28;20036;-81
2021/07/28 03:05:38;;;;;;;6.63;3.80;;;;;;;18.41;100.00;97846.63;5054059;28;20025;-81
2021/07/28 03:08:03;;;;;;;5.57;3.63;;;;;;;18.28;100.00;97845.84;5054193;28;20103;-79
2021/07/28 03:10:29;;;;;;;6.88;4.95;;;;;;;18.21;100.00;97848.38;5053824;28;20115;-81
2021/07/28 03:12:54;;;;;;;5.60;3.85;;;;;;;18.30;100.00;97851.03;5053924;28;20037;-80
2021/07/28 03:15:20;;;;;;;10.93;5.40;;;;;;;18.09;100.00;97845.63;5052742;28;20059;-82
2021/07/28 03:17:45;;;;;;;12.95;5.25;;;;;;;18.17;100.00;97845.50;5053778;28;20051;-81
2021/07/28 03:20:11;;;;;;;18.40;11.50;;;;;;;18.30;100.00;97845.47;5051832;28;20033;-80
2021/07/28 03:22:36;;;;;;;13.52;6.15;;;;;;;18.22;100.00;97847.25;5053948;28;20087;-81
2021/07/28 03:25:02;;;;;;;11.25;6.47;;;;;;;18.23;100.00;97845.28;5052135;28;20037;-80
2021/07/28 03:27:28;;;;;;;10.80;5.57;;;;;;;18.24;100.00;97846.88;5053278;28;20061;-80
2021/07/28 03:29:53;;;;;;;5.15;4.25;;;;;;;18.40;100.00;97850.56;5052113;28;20131;-80
2021/07/28 03:32:18;;;;;;;9.23;4.43;;;;;;;18.02;100.00;97829.59;5052282;28;20025;-80
2021/07/28 03:34:44;;;;;;;12.73;4.78;;;;;;;18.28;100.00;97861.66;5053526;28;20083;-80
2021/07/28 03:37:09;;;;;;;12.10;8.50;;;;;;;18.27;100.00;97857.25;5053638;28;20092;-83
2021/07/28 03:39:35;;;;;;;8.10;5.20;;;;;;;18.23;100.00;97861.91;5053194;28;20033;-79
2021/07/28 03:42:00;;;;;;;6.47;4.45;;;;;;;18.41;100.00;97855.75;5052002;28;20039;-82
2021/07/28 03:44:25;;;;;;;16.02;5.10;;;;;;;18.36;100.00;97863.47;5053459;28;20576;-81
2021/07/28 03:46:51;;;;;;;11.02;4.90;;;;;;;18.16;100.00;97862.47;5053091;28;20040;-81
2021/07/28 03:49:16;;;;;;;15.70;9.95;;;;;;;18.09;100.00;97860.28;5052913;28;20033;-79
2021/07/28 03:51:41;;;;;;;10.82;5.70;;;;;;;18.07;100.00;97861.78;5051454;28;20554;-79
2021/07/28 03:54:07;;;;;;;8.13;5.32;;;;;;;18.06;100.00;97857.38;5051545;28;20053;-81
2021/07/28 03:56:32;;;;;;;7.07;5.05;;;;;;;18.10;100.00;97859.13;5052799;28;20115;-81
2021/07/28 03:59:01;;;;;;;11.15;4.95;;;;;;;18.27;100.00;97860.84;5051568;28;20025;-81
2021/07/28 04:01:26;;;;;;;14.32;5.57;;;;;;;18.18;100.00;97860.16;5052352;28;20108;-81
2021/07/28 04:03:52;;;;;;;7.75;4.30;;;;;;;18.40;100.00;97850.56;5052349;28;20021;-82
2021/07/28 04:06:18;;;;;;;6.13;5.50;;;;;;;18.61;100.00;97862.31;5051584;28;20041;-79
2021/07/28 04:08:43;;;;;;;17.40;5.05;;;;;;;18.27;100.00;97857.25;5051267;28;20374;-81
2021/07/28 04:11:09;;;;;;;7.20;4.13;;;;;;;18.15;100.00;97863.63;5052623;28;20120;-80
2021/07/28 04:13:34;;;;;;;8.55;4.05;;;;;;;18.32;100.00;97862.56;5052698;28;20091;-79
2021/07/28 04:16:00;;;;;;;7.28;5.03;;;;;;;18.57;98.91;97858.63;5052766;28;20051;-81
2021/07/28 04:18:25;;;;;;;10.35;4.65;;;;;;;18.34;100.00;97858.28;5051315;28;20021;-80
2021/07/28 04:20:51;;;;;;;8.43;5.65;;;;;;;18.33;100.00;97847.56;5052353;28;20025;-82
2021/07/28 04:23:17;;;;;;;7.47;4.10;;;;;;;18.58;99.52;97855.50;5052226;28;20031;-80
2021/07/28 04:25:42;;;;;;;7.80;5.50;;;;;;;18.65;98.30;97849.38;5052719;28;20453;-80
2021/07/28 04:28:08;;;;;;;10.25;4.18;;;;;;;18.96;96.72;97857.81;5052464;28;20025;-77
2021/07/28 04:30:33;;;;;;;9.45;4.78;;;;;;;18.94;95.62;97848.25;5052494;28;20409;-78
2021/07/28 04:32:59;;;;;;;10.30;4.40;;;;;;;18.78;95.64;97848.19;5050661;28;20021;-79
2021/07/28 04:35:25;;;;;;;10.45;6.63;;;;;;;18.58;96.05;97840.84;5052251;28;20021;-78
2021/07/28 04:37:50;;;;;;;17.35;7.20;;;;;;;18.61;96.92;97834.59;5051984;28;20473;-79
2021/07/28 04:40:16;;;;;;;44.97;35.92;;;;;;;18.67;96.54;97835.97;5050809;28;20388;-78
2021/07/28 04:42:41;;;;;;;9.18;5.95;;;;;;;18.59;96.53;97820.28;5052149;28;20033;-79
2021/07/28 04:45:07;;;;;;;16.73;7.57;;;;;;;18.81;95.25;97841.13;5052217;28;20029;-78
2021/07/28 04:47:33;;;;;;;11.70;6.40;;;;;;;18.95;94.18;97845.09;5050265;28;20079;-77
2021/07/28 04:49:59;;;;;;;9.93;5.70;;;;;;;19.15;92.72;97855.19;5050291;28;20036;-78
2021/07/28 04:52:25;;;;;;;9.20;4.65;;;;;;;19.31;91.50;97844.16;5051971;28;20025;-78
2021/07/28 04:54:54;;;;;;;12.45;5.47;;;;;;;19.48;90.40;97843.03;5051847;28;20036;-77
2021/07/28 04:57:20;;;;;;;5.90;5.05;;;;;;;19.20;91.37;97845.84;5051764;28;20071;-78
2021/07/28 04:59:46;;;;;;;6.47;4.43;;;;;;;19.23;92.20;97843.13;5051510;28;20033;-78
2021/07/28 05:02:34;;;;;;;11.32;6.30;;;;;;;19.62;89.93;97846.19;5052251;28;20068;-76
2021/07/28 05:05:00;;;;;;;9.70;4.93;;;;;;;19.67;88.98;97845.94;5051751;28;20095;-76
2021/07/28 05:07:25;;;;;;;8.38;4.50;;;;;;;19.94;87.74;97845.03;5051481;28;20033;-78
2021/07/28 05:09:51;;;;;;;7.40;4.88;;;;;;;19.80;87.45;97825.22;5051548;28;20044;-78
2021/07/28 05:12:16;;;;;;;18.33;6.53;;;;;;;19.93;86.90;97842.59;5051475;28;20036;-78
2021/07/28 05:14:42;;;;;;;8.98;5.07;;;;;;;20.32;85.55;97852.72;5050977;28;20031;-78
2021/07/28 05:17:08;;;;;;;11.00;6.38;;;;;;;20.29;84.48;97843.16;5051513;28;20061;-78
2021/07/28 05:19:33;;;;;;;11.27;4.72;;;;;;;20.52;83.84;97840.47;5051057;28;20021;-78
2021/07/28 05:21:58;;;;;;;9.77;4.43;;;;;;;20.98;80.64;97841.47;5051424;28;20548;-78
2021/07/28 05:24:24;;;;;;;9.05;4.00;;;;;;;21.59;77.94;97854.59;5051008;28;20442;-78
2021/07/28 05:26:49;;;;;;;7.95;3.47;;;;;;;21.50;77.57;97862.38;5050906;28;20036;-79
2021/07/28 05:29:15;;;;;;;6.40;3.72;;;;;;;21.39;76.84;97847.47;5050885;28;20037;-77
2021/07/28 05:31:40;;;;;;;6.20;3.63;;;;;;;21.26;77.95;97858.78;5050712;28;20055;-79
2021/07/28 05:34:05;;;;;;;4.90;3.13;;;;;;;21.18;78.11;97857.00;5049849;28;20579;-79
2021/07/28 05:36:31;;;;;;;4.75;3.50;;;;;;;20.81;80.18;97844.69;5051187;28;20458;-79
2021/07/28 05:38:56;;;;;;;10.10;4.15;;;;;;;21.03;79.73;97843.16;5050714;28;20402;-78
2021/07/28 05:41:22;;;;;;;6.90;4.00;;;;;;;21.07;79.27;97853.19;5049716;28;20020;-78
2021/07/28 05:43:47;;;;;;;5.93;3.50;;;;;;;21.30;78.37;97856.84;5050942;28;20081;-78
2021/07/28 05:46:12;;;;;;;5.60;3.97;;;;;;;21.07;78.74;97853.19;5050768;28;20025;-78
2021/07/28 05:48:38;;;;;;;7.05;3.80;;;;;;;20.89;79.21;97849.25;5050987;28;20024;-76
2021/07/28 05:51:03;;;;;;;6.50;3.75;;;;;;;21.29;77.97;97844.13;5049167;28;20025;-77
2021/07/28 05:53:29;;;;;;;6.63;4.10;;;;;;;21.77;75.67;97847.41;5051016;28;20029;-79
2021/07/28 05:55:55;;;;;;;5.57;3.80;;;;;;;22.34;73.40;97858.31;5050763;28;20060;-79
2021/07/28 05:58:21;;;;;;;9.85;4.35;;;;;;;22.35;73.23;97856.34;5049252;28;20029;-79
2021/07/28 06:00:48;;;;;;;11.30;3.88;;;;;;;22.81;71.50;97862.59;5049349;28;20013;-79
2021/07/28 06:03:13;;;;;;;12.25;5.13;;;;;;;22.48;71.62;97863.31;5050728;28;20056;-78
2021/07/28 06:05:39;;;;;;;18.85;4.78;;;;;;;22.06;73.13;97852.28;5050852;28;20040;-79
2021/07/28 06:08:05;;;;;;;21.80;5.75;;;;;;;22.27;73.52;97852.63;5050363;28;20520;-76
2021/07/28 06:10:31;;;;;;;6.55;3.60;;;;;;;22.23;73.41;97857.34;5050566;28;20029;-77
2021/07/28 06:12:59;;;;;;;9.45;4.32;;;;;;;22.25;73.36;97855.00;5050559;28;20471;-78
2021/07/28 06:15:25;;;;;;;12.90;4.47;;;;;;;22.44;72.45;97865.22;5050766;28;20212;-78
2021/07/28 06:17:50;;;;;;;13.13;4.55;;;;;;;21.71;75.39;97858.00;5049013;28;20124;-80
2021/07/28 06:20:17;;;;;;;8.85;4.28;;;;;;;22.07;74.48;97856.69;5050445;28;20120;-77
2021/07/28 06:22:43;;;;;;;9.52;4.50;;;;;;;22.48;72.99;97852.16;5049579;28;20029;-78
2021/07/28 06:25:09;;;;;;;8.88;4.18;;;;;;;22.38;72.75;97847.22;5050274;28;20050;-77
2021/07/28 06:27:34;;;;;;;7.82;4.43;;;;;;;22.29;73.11;97855.06;5052881;28;20029;-78
2021/07/28 06:30:00;;;;;;;9.75;4.80;;;;;;;22.15;74.14;97843.66;5054683;28;20057;-78
2021/07/28 06:32:25;;;;;;;23.75;5.05;;;;;;;22.71;71.92;97847.31;5054512;28;20029;-78
2021/07/28 06:34:51;;;;;;;15.27;3.85;;;;;;;23.14;70.45;97840.34;5053187;28;20033;-78
2021/07/28 06:37:16;;;;;;;8.18;4.00;;;;;;;23.14;69.83;97850.69;5054460;28;20028;-78
2021/07/28 06:39:42;;;;;;;6.93;3.90;;;;;;;23.21;70.26;97851.56;5054425;28;20384;-78
2021/07/28 06:42:07;;;;;;;6.80;4.22;;;;;;;23.34;69.55;97855.69;5052844;28;20500;-78
2021/07/28 06:44:32;;;;;;;11.15;4.40;;;;;;;23.24;69.37;97850.78;5053953;28;20504;-78
2021/07/28 06:46:58;;;;;;;9.63;4.63;;;;;;;23.37;69.44;97865.31;5052477;28;20032;-78
2021/07/28 06:49:23;;;;;;;13.15;4.32;;;;;;;23.79;68.25;97856.59;5054306;28;20049;-77
2021/07/28 06:51:49;;;;;;;8.88;4.35;;;;;;;23.87;67.97;97872.28;5052438;28;20123;-78
2021/07/28 06:54:14;;;;;;;10.00;3.88;;;;;;;23.97;67.69;97871.53;5052638;28;20025;-78
2021/07/28 06:56:39;;;;;;;7.22;4.05;;;;;;;23.94;68.13;97856.34;5054183;28;20112;-79
2021/07/28 06:59:05;;;;;;;7.03;4.35;;;;;;;24.09;68.01;97871.25;5053583;28;20115;-78
2021/07/28 07:01:31;;;;;;;6.25;3.65;;;;;;;23.98;68.00;97870.38;5053068;28;20037;-79
2021/07/28 07:03:56;;;;;;;9.60;4.82;;;;;;;23.79;68.78;97859.41;5054089;28;20021;-77
2021/07/28 07:06:22;;;;;;;9.75;3.95;;;;;;;23.65;68.37;97842.53;5054291;28;20075;-79
2021/07/28 07:08:47;;;;;;;11.98;6.20;;;;;;;23.90;68.17;97854.75;5054090;28;20013;-78
2021/07/28 07:11:12;;;;;;;8.85;4.63;;;;;;;23.37;70.11;97846.56;5054435;28;20020;-78
2021/07/28 07:13:38;;;;;;;13.80;4.07;;;;;;;23.30;70.57;97843.72;5053636;28;20040;-78
2021/07/28 07:16:03;;;;;;;10.20;4.72;;;;;;;23.25;70.63;97851.59;5053930;28;20539;-77
2021/07/28 07:18:29;;;;;;;11.15;4.85;;;;;;;23.90;68.57;97851.94;5053681;28;20029;-80
2021/07/28 07:20:54;;;;;;;12.50;5.57;;;;;;;23.97;67.77;97850.00;5053465;28;20039;-78
2021/07/28 07:23:20;;;;;;;9.80;5.45;;;;;;;24.00;67.50;97849.22;5052423;28;20032;-78
2021/07/28 07:25:45;;;;;;;7.10;4.80;;;;;;;23.81;68.32;97837.47;5053892;28;20541;-78
2021/07/28 07:28:10;;;;;;;9.18;4.50;;;;;;;23.86;68.28;97842.72;5052204;28;20033;-78
2021/07/28 07:30:36;;;;;;;6.78;4.03;;;;;;;24.58;65.70;97839.31;5052018;28;20515;-78
2021/07/28 07:35:45;;;;;;;8.85;4.45;;;;;;;24.19;66.29;97841.81;5053336;28;20326;-78
2021/07/28 07:38:11;;;;;;;8.80;5.03;;;;;;;24.40;65.61;97853.97;5053438;28;20033;-77
2021/07/28 07:40:36;;;;;;;7.47;4.28;;;;;;;24.38;65.58;97847.16;5053531;28;20012;-78
2021/07/28 07:43:05;;;;;;;7.88;4.43;;;;;;;24.95;63.64;97851.13;5053980;28;20486;-76
2021/07/28 07:45:30;;;;;;;13.07;5.47;;;;;;;25.07;62.56;97844.38;5051480;28;20056;-78
2021/07/28 07:47:56;;;;;;;8.57;4.07;;;;;;;25.44;61.71;97851.31;5053466;28;20072;-76
2021/07/28 07:50:21;;;;;;;7.15;4.60;;;;;;;25.55;61.48;97852.19;5051819;28;20056;-77
2021/07/28 07:52:46;;;;;;;14.15;4.20;;;;;;;26.08;58.98;97857.88;5053177;28;20039;-78
2021/07/28 07:55:12;;;;;;;11.00;4.10;;;;;;;26.08;59.86;97837.44;5053394;28;20032;-78
2021/07/28 07:57:37;;;;;;;10.07;4.70;;;;;;;26.09;59.11;97847.47;5053332;28;20450;-77
2021/07/28 08:00:03;;;;;;;9.52;4.43;;;;;;;25.95;58.81;97839.84;5053020;28;20033;-76
2021/07/28 08:02:31;;;;;;;11.25;4.22;;;;;;;26.53;57.19;97835.84;5053605;28;20032;-76
2021/07/28 08:04:56;;;;;;;6.78;4.05;;;;;;;25.96;58.74;97840.66;5052484;28;20029;-76
2021/07/28 08:07:21;;;;;;;9.32;4.57;;;;;;;26.79;56.67;97829.75;5053272;28;20342;-78
2021/07/28 08:09:47;;;;;;;11.30;4.07;;;;;;;27.69;53.79;97834.66;5051083;28;20017;-78
2021/07/28 08:12:12;;;;;;;11.38;3.97;;;;;;;29.00;49.48;97839.16;5052807;28;20052;-78
2021/07/28 08:14:38;;;;;;;9.43;4.85;;;;;;;29.91;47.02;97836.38;5051488;28;20028;-79
2021/07/28 08:17:04;;;;;;;8.20;3.53;;;;;;;29.07;48.76;97844.72;5052535;28;20109;-78
2021/07/28 08:19:29;;;;;;;9.45;3.70;;;;;;;30.20;45.20;97837.50;5052492;28;20055;-76
2021/07/28 08:21:54;;;;;;;9.27;3.70;;;;;;;29.35;47.04;97841.59;5051579;28;20017;-77
2021/07/28 08:24:20;;;;;;;4.50;2.83;;;;;;;30.28;45.36;97839.00;5052371;28;20033;-78
2021/07/28 08:26:45;;;;;;;5.32;3.10;;;;;;;30.50;44.72;97823.31;5050821;28;20025;-76
2021/07/28 08:29:11;;;;;;;7.20;3.65;;;;;;;30.69;44.37;97833.06;5052057;28;20104;-76
2021/07/28 08:31:36;;;;;;;9.40;3.97;;;;;;;31.18;43.23;97829.28;5052234;28;20040;-77
2021/07/28 08:34:02;;;;;;;5.55;3.60;;;;;;;31.25;43.00;97825.53;5052338;28;20033;-75
2021/07/28 08:36:27;;;;;;;8.43;3.97;;;;;;;31.01;43.25;97818.34;5050775;28;20167;-74
2021/07/28 08:38:53;;;;;;;8.68;3.45;;;;;;;31.57;42.25;97822.03;5050535;28;20498;-75
2021/07/28 08:41:22;;;;;;;5.43;2.90;;;;;;;33.32;39.01;97815.94;5051176;28;20040;-77
2021/07/28 08:43:53;;;;;;;7.47;3.13;;;;;;;33.25;39.08;97816.13;5052286;28;20382;-78
2021/07/28 08:46:21;;;;;;;6.45;4.13;;;;;;;32.53;40.66;97809.19;5051059;28;20120;-76
2021/07/28 08:48:47;;;;;;;7.60;3.78;;;;;;;31.29;42.74;97789.50;5051583;28;20055;-76
2021/07/28 08:51:12;;;;;;;6.07;4.20;;;;;;;32.92;40.35;97802.50;5050761;28;20036;-77
2021/07/28 08:53:38;;;;;;;5.97;3.92;;;;;;;33.71;38.71;97809.06;5052267;28;20021;-76
2021/07/28 08:56:04;;;;;;;7.82;3.75;;;;;;;34.93;36.62;97813.13;5050407;28;20592;-77
2021/07/28 08:58:29;;;;;;;9.35;3.78;;;;;;;34.51;36.38;97818.25;5052144;28;20036;-76
2021/07/28 09:00:56;;;;;;;6.68;4.38;;;;;;;33.89;38.18;97814.22;5055674;28;20025;-75
2021/07/28 09:03:22;;;;;;;7.25;4.00;;;;;;;34.52;37.03;97816.22;5056746;28;20025;-74
2021/07/28 09:05:51;;;;;;;7.63;3.83;;;;;;;35.41;35.85;97814.63;5054476;28;20031;-76
2021/07/28 09:08:28;;;;;;;7.97;3.78;;;;;;;35.71;35.43;97819.56;5053652;28;20029;-76
2021/07/28 09:11:11;;;;;;;7.47;4.55;;;;;;;35.50;35.45;97811.81;5053676;28;20119;-77
2021/07/28 09:13:36;;;;;;;6.00;3.20;;;;;;;35.23;36.23;97809.59;5051732;28;20032;-78
2021/07/28 09:16:06;;;;;;;7.95;2.97;;;;;;;35.59;35.82;97806.22;5051958;28;20035;-75
2021/07/28 09:18:33;;;;;;;5.50;3.33;;;;;;;35.75;35.33;97811.69;5050380;28;20444;-75
2021/07/28 09:21:01;;;;;;;8.43;3.85;;;;;;;36.00;35.44;97811.47;5051233;28;20373;-76
2021/07/28 09:23:35;;;;;;;5.97;3.00;;;;;;;36.53;33.99;97802.81;5051826;28;20100;-75
2021/07/28 09:26:04;;;;;;;7.60;4.60;;;;;;;36.70;33.13;97800.47;5052090;28;20060;-78
2021/07/28 09:28:30;;;;;;;9.77;4.45;;;;;;;35.96;34.68;97790.88;5051894;28;20028;-78
2021/07/28 09:30:57;;;;;;;5.38;3.78;;;;;;;35.52;35.53;97795.09;5051591;28;20148;-75
2021/07/28 09:33:23;;;;;;;7.30;3.88;;;;;;;36.06;34.86;97785.25;5051821;28;20071;-77
2021/07/28 09:35:54;;;;;;;7.95;3.63;;;;;;;36.77;33.27;97789.53;5051780;28;20086;-77
2021/07/28 09:38:45;;;;;;;8.30;3.50;;;;;;;37.53;31.63;97791.38;5050325;28;20107;-77
2021/07/28 09:41:21;;;;;;;6.38;3.58;;;;;;;37.38;32.17;97788.38;5051667;28;20155;-78
2021/07/28 09:43:52;;;;;;;8.88;4.10;;;;;;;37.15;32.18;97779.72;5051226;28;20025;-79
2021/07/28 09:46:38;;;;;;;12.18;3.60;;;;;;;36.76;33.34;97782.25;5051914;28;20052;-77
2021/07/28 09:49:05;;;;;;;8.40;4.35;;;;;;;36.55;33.47;97777.47;5051188;28;20048;-78
2021/07/28 09:51:34;;;;;;;8.60;3.35;;;;;;;37.55;32.23;97774.59;5051755;28;20025;-76
2021/07/28 09:54:05;;;;;;;7.32;3.50;;;;;;;37.20;33.11;97770.50;5050039;28;20029;-78
2021/07/28 09:56:34;;;;;;;4.85;4.15;;;;;;;35.36;35.56;97761.16;5050186;28;20036;-77
2021/07/28 09:58:59;;;;;;;10.98;4.03;;;;;;;36.55;33.74;97768.94;5051202;28;20013;-77
2021/07/28 10:01:26;;;;;;;10.52;4.10;;;;;;;36.92;32.90;97770.50;5049507;28;20025;-77
2021/07/28 10:03:53;;;;;;;6.72;4.50;;;;;;;38.33;30.41;97776.47;5050374;28;20385;-77
2021/07/28 10:06:22;;;;;;;8.25;3.63;;;;;;;38.04;31.37;97760.75;5051159;28;20425;-77
2021/07/28 10:08:52;;;;;;;6.43;4.57;;;;;;;37.41;32.00;97764.59;5051000;28;20020;-78
2021/07/28 10:11:21;;;;;;;7.70;4.05;;;;;;;37.41;31.49;97752.38;5051970;28;20035;-77
2021/07/28 10:13:48;;;;;;;8.38;4.45;;;;;;;37.40;31.71;97753.66;5050379;28;20489;-78
2021/07/28 10:16:16;;;;;;;8.88;4.13;;;;;;;37.64;31.36;97754.56;5051053;28;20024;-78
2021/07/28 10:18:47;;;;;;;8.15;4.53;;;;;;;37.65;31.36;97750.44;5050736;28;20032;-78
2021/07/28 10:21:12;;;;;;;9.35;4.47;;;;;;;39.24;29.59;97752.91;5050807;28;20044;-78
2021/07/28 10:23:38;;;;;;;8.23;4.43;;;;;;;38.46;30.04;97745.59;5050729;28;20122;-78
2021/07/28 10:26:05;;;;;;;9.43;4.38;;;;;;;38.36;30.72;97741.22;5050960;28;20036;-76
2021/07/28 10:28:31;;;;;;;9.32;3.85;;;;;;;37.84;30.99;97728.28;5050844;28;20041;-76
2021/07/28 10:31:19;;;;;;;8.30;4.32;;;;;;;38.69;30.29;97733.31;5050502;28;20037;-77
2021/07/28 10:33:46;;;;;;;9.32;4.38;;;;;;;38.77;30.11;97731.69;5050928;28;20119;-78
2021/07/28 10:36:13;;;;;;;5.72;4.40;;;;;;;36.58;33.20;97721.56;5049232;28;20060;-77
2021/07/28 10:38:53;;;;;;;11.65;4.55;;;;;;;37.37;32.94;97726.06;5049207;28;20037;-77
2021/07/28 10:41:37;;;;;;;7.43;4.85;;;;;;;36.29;34.59;97716.28;5050652;28;20029;-77
2021/07/28 10:44:17;;;;;;;9.27;4.70;;;;;;;35.45;36.52;97712.81;5050465;28;20029;-79
2021/07/28 10:46:52;;;;;;;16.85;5.60;;;;;;;33.58;39.90;97711.75;5049283;28;20260;-77
2021/07/28 10:49:35;;;;;;;7.90;4.25;;;;;;;32.49;42.59;97707.28;5049187;28;20025;-76
2021/07/28 10:52:09;;;;;;;9.98;4.32;;;;;;;33.17;41.29;97704.16;5049250;28;20033;-77
2021/07/28 10:54:47;;;;;;;12.73;5.88;;;;;;;33.34;40.63;97705.63;5049511;28;20029;-75
2021/07/28 10:57:33;;;;;;;7.32;4.88;;;;;;;33.21;41.00;97699.13;5050639;28;20060;-75
2021/07/28 11:00:09;;;;;;;7.38;4.63;;;;;;;33.59;40.21;97699.16;5009638;28;20033;-74
2021/07/28 11:02:52;;;;;;;13.57;6.38;;;;;;;33.24;41.26;97701.06;5049945;28;20139;-76
2021/07/28 11:05:18;;;;;;;10.52;4.90;;;;;;;32.67;42.76;97696.28;5048909;28;20043;-76
2021/07/28 11:07:59;;;;;;;10.80;4.43;;;;;;;32.32;43.60;97691.59;5048657;28;20464;-75
2021/07/28 11:10:47;;;;;;;9.35;4.53;;;;;;;33.01;41.94;97694.91;5049949;28;20516;-76
2021/07/28 11:13:15;;;;;;;12.05;5.47;;;;;;;33.05;41.80;97692.75;5042035;28;20048;-76
2021/07/28 11:15:51;;;;;;;12.27;5.88;;;;;;;33.02;42.05;97683.09;5053910;28;20035;-77
2021/07/28 11:18:30;;;;;;;15.13;5.18;;;;;;;33.45;40.68;97693.94;5053557;28;20029;-76
2021/07/28 11:21:05;;;;;;;7.40;4.95;;;;;;;33.25;41.80;97694.16;5053630;28;20037;-76
2021/07/28 11:23:31;;;;;;;10.98;4.82;;;;;;;33.45;41.71;97681.78;5053735;28;20040;-77
2021/07/28 11:26:00;;;;;;;11.63;5.78;;;;;;;33.09;41.35;97682.91;5054902;28;20028;-77
2021/07/28 11:28:27;;;;;;;10.40;4.45;;;;;;;32.86;41.61;97686.78;5052574;28;20110;-76
2021/07/28 11:31:01;;;;;;;11.00;4.72;;;;;;;33.33;40.24;97691.91;5052319;28;20048;-76
2021/07/28 11:33:31;;;;;;;10.30;4.67;;;;;;;32.97;40.42;97674.34;5053141;28;20111;-76
2021/07/28 11:35:57;;;;;;;9.77;4.93;;;;;;;33.47;39.68;97674.41;5052295;28;20269;-78
2021/07/28 11:38:31;;;;;;;5.55;4.05;;;;;;;33.71;39.04;97672.03;5052083;28;20116;-78